<?xml version="1.0" encoding="UTF-8" standalone="no" ?>
<gpx xmlns="http://www.topografix.com/GPX/1/1" xmlns:xsi="http://www.w3.org/2001/XMLSchema-instance" xsi:schemaLocation="http://www.topografix.com/GPX/1/1 http://www.topografix.com/GPX/1/1/gpx.xsd" version="1.1" creator="VisuGPX - https://www.visugpx.com">
  <metadata>
    <name>Suisse-Normande-37-28</name>
  </metadata>
  <trk>
    <name><![CDATA[11341037-Putanges-Pont-Ecrépin]]></name>
    <extensions>
      <line xmlns="http://www.topografix.com/GPX/gpx_style/0/2">
        <color>002aff</color>
        <width>4</width>
      </line>
    </extensions>
    <trkseg>
      <trkpt lat="48.76389" lon="-0.2449">
        <ele>129</ele>
        <time>2020-05-23T14:44:47Z</time>
      </trkpt>
      <trkpt lat="48.76387" lon="-0.24374">
        <ele>127</ele>
        <time>2020-05-23T14:45:05Z</time>
      </trkpt>
      <trkpt lat="48.76333" lon="-0.24348">
        <ele>127</ele>
        <time>2020-05-23T14:45:18Z</time>
      </trkpt>
      <trkpt lat="48.76294" lon="-0.24299">
        <ele>132</ele>
        <time>2020-05-23T14:45:30Z</time>
      </trkpt>
      <trkpt lat="48.76259" lon="-0.2427">
        <ele>135</ele>
        <time>2020-05-23T14:45:39Z</time>
      </trkpt>
      <trkpt lat="48.76236" lon="-0.24206">
        <ele>143</ele>
        <time>2020-05-23T14:45:50Z</time>
      </trkpt>
      <trkpt lat="48.76361" lon="-0.24176">
        <ele>145</ele>
        <time>2020-05-23T14:46:20Z</time>
      </trkpt>
      <trkpt lat="48.76382" lon="-0.24231">
        <ele>138</ele>
        <time>2020-05-23T14:46:30Z</time>
      </trkpt>
      <trkpt lat="48.76504" lon="-0.24156">
        <ele>144</ele>
        <time>2020-05-23T14:47:01Z</time>
      </trkpt>
      <trkpt lat="48.76527" lon="-0.24137">
        <ele>144</ele>
        <time>2020-05-23T14:47:07Z</time>
      </trkpt>
      <trkpt lat="48.76559" lon="-0.24081">
        <ele>146</ele>
        <time>2020-05-23T14:47:18Z</time>
      </trkpt>
      <trkpt lat="48.76561" lon="-0.23994">
        <ele>150</ele>
        <time>2020-05-23T14:47:31Z</time>
      </trkpt>
      <trkpt lat="48.76553" lon="-0.23922">
        <ele>153</ele>
        <time>2020-05-23T14:47:43Z</time>
      </trkpt>
      <trkpt lat="48.76528" lon="-0.23846">
        <ele>156</ele>
        <time>2020-05-23T14:47:56Z</time>
      </trkpt>
      <trkpt lat="48.76522" lon="-0.23623">
        <ele>167</ele>
        <time>2020-05-23T14:48:30Z</time>
      </trkpt>
      <trkpt lat="48.76542" lon="-0.23442">
        <ele>172</ele>
        <time>2020-05-23T14:48:58Z</time>
      </trkpt>
      <trkpt lat="48.76544" lon="-0.23343">
        <ele>176</ele>
        <time>2020-05-23T14:49:14Z</time>
      </trkpt>
      <trkpt lat="48.76572" lon="-0.23148">
        <ele>183</ele>
        <time>2020-05-23T14:49:44Z</time>
      </trkpt>
      <trkpt lat="48.76514" lon="-0.2312">
        <ele>182</ele>
        <time>2020-05-23T14:49:59Z</time>
      </trkpt>
      <trkpt lat="48.7647" lon="-0.23075">
        <ele>183</ele>
        <time>2020-05-23T14:50:11Z</time>
      </trkpt>
      <trkpt lat="48.76564" lon="-0.22861">
        <ele>193</ele>
        <time>2020-05-23T14:50:51Z</time>
      </trkpt>
      <trkpt lat="48.76591" lon="-0.22747">
        <ele>198</ele>
        <time>2020-05-23T14:51:09Z</time>
      </trkpt>
      <trkpt lat="48.76589" lon="-0.2225">
        <ele>206</ele>
        <time>2020-05-23T14:52:26Z</time>
      </trkpt>
      <trkpt lat="48.76681" lon="-0.22341">
        <ele>207</ele>
        <time>2020-05-23T14:52:51Z</time>
      </trkpt>
      <trkpt lat="48.76874" lon="-0.22676">
        <ele>198</ele>
        <time>2020-05-23T14:54:00Z</time>
      </trkpt>
      <trkpt lat="48.76988" lon="-0.22847">
        <ele>197</ele>
        <time>2020-05-23T14:54:37Z</time>
      </trkpt>
      <trkpt lat="48.77021" lon="-0.22915">
        <ele>194</ele>
        <time>2020-05-23T14:54:50Z</time>
      </trkpt>
      <trkpt lat="48.77112" lon="-0.23196">
        <ele>178</ele>
        <time>2020-05-23T14:55:38Z</time>
      </trkpt>
      <trkpt lat="48.77171" lon="-0.2309">
        <ele>182</ele>
        <time>2020-05-23T14:56:00Z</time>
      </trkpt>
      <trkpt lat="48.77232" lon="-0.23028">
        <ele>186</ele>
        <time>2020-05-23T14:56:17Z</time>
      </trkpt>
      <trkpt lat="48.77275" lon="-0.22926">
        <ele>192</ele>
        <time>2020-05-23T14:56:36Z</time>
      </trkpt>
      <trkpt lat="48.77358" lon="-0.22836">
        <ele>195</ele>
        <time>2020-05-23T14:56:59Z</time>
      </trkpt>
      <trkpt lat="48.77384" lon="-0.22774">
        <ele>199</ele>
        <time>2020-05-23T14:57:11Z</time>
      </trkpt>
      <trkpt lat="48.77403" lon="-0.22681">
        <ele>206</ele>
        <time>2020-05-23T14:57:26Z</time>
      </trkpt>
      <trkpt lat="48.77446" lon="-0.22626">
        <ele>209</ele>
        <time>2020-05-23T14:57:39Z</time>
      </trkpt>
      <trkpt lat="48.77445" lon="-0.2257">
        <ele>212</ele>
        <time>2020-05-23T14:57:47Z</time>
      </trkpt>
      <trkpt lat="48.77452" lon="-0.22514">
        <ele>214</ele>
        <time>2020-05-23T14:57:56Z</time>
      </trkpt>
      <trkpt lat="48.77443" lon="-0.22473">
        <ele>216</ele>
        <time>2020-05-23T14:58:03Z</time>
      </trkpt>
      <trkpt lat="48.7745" lon="-0.22425">
        <ele>218</ele>
        <time>2020-05-23T14:58:10Z</time>
      </trkpt>
      <trkpt lat="48.77487" lon="-0.22232">
        <ele>224</ele>
        <time>2020-05-23T14:58:41Z</time>
      </trkpt>
      <trkpt lat="48.77514" lon="-0.22036">
        <ele>233</ele>
        <time>2020-05-23T14:59:12Z</time>
      </trkpt>
      <trkpt lat="48.7751" lon="-0.21936">
        <ele>234</ele>
        <time>2020-05-23T14:59:28Z</time>
      </trkpt>
      <trkpt lat="48.77532" lon="-0.21822">
        <ele>235</ele>
        <time>2020-05-23T14:59:46Z</time>
      </trkpt>
      <trkpt lat="48.77543" lon="-0.21748">
        <ele>236</ele>
        <time>2020-05-23T14:59:58Z</time>
      </trkpt>
      <trkpt lat="48.77522" lon="-0.21573">
        <ele>239</ele>
        <time>2020-05-23T15:00:25Z</time>
      </trkpt>
      <trkpt lat="48.77504" lon="-0.21396">
        <ele>242</ele>
        <time>2020-05-23T15:00:53Z</time>
      </trkpt>
      <trkpt lat="48.77483" lon="-0.21258">
        <ele>243</ele>
        <time>2020-05-23T15:01:14Z</time>
      </trkpt>
      <trkpt lat="48.77418" lon="-0.21193">
        <ele>245</ele>
        <time>2020-05-23T15:01:32Z</time>
      </trkpt>
      <trkpt lat="48.77463" lon="-0.21049">
        <ele>243</ele>
        <time>2020-05-23T15:01:57Z</time>
      </trkpt>
      <trkpt lat="48.77482" lon="-0.20993">
        <ele>242</ele>
        <time>2020-05-23T15:02:07Z</time>
      </trkpt>
      <trkpt lat="48.77514" lon="-0.2073">
        <ele>238</ele>
        <time>2020-05-23T15:02:48Z</time>
      </trkpt>
      <trkpt lat="48.77514" lon="-0.20691">
        <ele>237</ele>
        <time>2020-05-23T15:02:54Z</time>
      </trkpt>
      <trkpt lat="48.77467" lon="-0.20347">
        <ele>231</ele>
        <time>2020-05-23T15:03:48Z</time>
      </trkpt>
      <trkpt lat="48.77482" lon="-0.20282">
        <ele>228</ele>
        <time>2020-05-23T15:03:59Z</time>
      </trkpt>
      <trkpt lat="48.77476" lon="-0.20247">
        <ele>228</ele>
        <time>2020-05-23T15:04:04Z</time>
      </trkpt>
      <trkpt lat="48.77457" lon="-0.20208">
        <ele>229</ele>
        <time>2020-05-23T15:04:12Z</time>
      </trkpt>
      <trkpt lat="48.7748" lon="-0.20105">
        <ele>227</ele>
        <time>2020-05-23T15:04:28Z</time>
      </trkpt>
      <trkpt lat="48.77466" lon="-0.20062">
        <ele>228</ele>
        <time>2020-05-23T15:04:36Z</time>
      </trkpt>
      <trkpt lat="48.77436" lon="-0.20038">
        <ele>230</ele>
        <time>2020-05-23T15:04:44Z</time>
      </trkpt>
      <trkpt lat="48.7743" lon="-0.20013">
        <ele>230</ele>
        <time>2020-05-23T15:04:48Z</time>
      </trkpt>
      <trkpt lat="48.77428" lon="-0.19979">
        <ele>229</ele>
        <time>2020-05-23T15:04:53Z</time>
      </trkpt>
      <trkpt lat="48.77372" lon="-0.19971">
        <ele>231</ele>
        <time>2020-05-23T15:05:06Z</time>
      </trkpt>
      <trkpt lat="48.77389" lon="-0.19857">
        <ele>229</ele>
        <time>2020-05-23T15:05:24Z</time>
      </trkpt>
      <trkpt lat="48.7726" lon="-0.19811">
        <ele>234</ele>
        <time>2020-05-23T15:05:55Z</time>
      </trkpt>
      <trkpt lat="48.77192" lon="-0.19747">
        <ele>237</ele>
        <time>2020-05-23T15:06:14Z</time>
      </trkpt>
      <trkpt lat="48.76994" lon="-0.19602">
        <ele>235</ele>
        <time>2020-05-23T15:07:05Z</time>
      </trkpt>
      <trkpt lat="48.7695" lon="-0.19576">
        <ele>231</ele>
        <time>2020-05-23T15:07:16Z</time>
      </trkpt>
      <trkpt lat="48.76902" lon="-0.19598">
        <ele>228</ele>
        <time>2020-05-23T15:07:28Z</time>
      </trkpt>
      <trkpt lat="48.76844" lon="-0.19624">
        <ele>224</ele>
        <time>2020-05-23T15:07:42Z</time>
      </trkpt>
      <trkpt lat="48.76777" lon="-0.19626">
        <ele>224</ele>
        <time>2020-05-23T15:07:58Z</time>
      </trkpt>
      <trkpt lat="48.76662" lon="-0.19703">
        <ele>224</ele>
        <time>2020-05-23T15:08:27Z</time>
      </trkpt>
      <trkpt lat="48.76586" lon="-0.1973">
        <ele>228</ele>
        <time>2020-05-23T15:08:45Z</time>
      </trkpt>
      <trkpt lat="48.76478" lon="-0.19747">
        <ele>233</ele>
        <time>2020-05-23T15:09:11Z</time>
      </trkpt>
      <trkpt lat="48.76447" lon="-0.19738">
        <ele>233</ele>
        <time>2020-05-23T15:09:18Z</time>
      </trkpt>
      <trkpt lat="48.7642" lon="-0.19752">
        <ele>234</ele>
        <time>2020-05-23T15:09:25Z</time>
      </trkpt>
      <trkpt lat="48.76393" lon="-0.19791">
        <ele>230</ele>
        <time>2020-05-23T15:09:33Z</time>
      </trkpt>
      <trkpt lat="48.76326" lon="-0.19852">
        <ele>226</ele>
        <time>2020-05-23T15:09:51Z</time>
      </trkpt>
      <trkpt lat="48.76244" lon="-0.19887">
        <ele>221</ele>
        <time>2020-05-23T15:10:11Z</time>
      </trkpt>
      <trkpt lat="48.76186" lon="-0.19926">
        <ele>218</ele>
        <time>2020-05-23T15:10:26Z</time>
      </trkpt>
      <trkpt lat="48.76144" lon="-0.19984">
        <ele>217</ele>
        <time>2020-05-23T15:10:39Z</time>
      </trkpt>
      <trkpt lat="48.76044" lon="-0.19804">
        <ele>211</ele>
        <time>2020-05-23T15:11:16Z</time>
      </trkpt>
      <trkpt lat="48.75976" lon="-0.19628">
        <ele>201</ele>
        <time>2020-05-23T15:11:47Z</time>
      </trkpt>
      <trkpt lat="48.75948" lon="-0.19576">
        <ele>198</ele>
        <time>2020-05-23T15:11:57Z</time>
      </trkpt>
      <trkpt lat="48.75908" lon="-0.19584">
        <ele>195</ele>
        <time>2020-05-23T15:12:07Z</time>
      </trkpt>
      <trkpt lat="48.75833" lon="-0.19616">
        <ele>189</ele>
        <time>2020-05-23T15:12:25Z</time>
      </trkpt>
      <trkpt lat="48.75786" lon="-0.19666">
        <ele>189</ele>
        <time>2020-05-23T15:12:38Z</time>
      </trkpt>
      <trkpt lat="48.75769" lon="-0.19673">
        <ele>189</ele>
        <time>2020-05-23T15:12:43Z</time>
      </trkpt>
      <trkpt lat="48.75758" lon="-0.19614">
        <ele>186</ele>
        <time>2020-05-23T15:12:52Z</time>
      </trkpt>
      <trkpt lat="48.75768" lon="-0.19396">
        <ele>175</ele>
        <time>2020-05-23T15:13:26Z</time>
      </trkpt>
      <trkpt lat="48.7574" lon="-0.1934">
        <ele>172</ele>
        <time>2020-05-23T15:13:36Z</time>
      </trkpt>
      <trkpt lat="48.75679" lon="-0.1914">
        <ele>163</ele>
        <time>2020-05-23T15:14:10Z</time>
      </trkpt>
      <trkpt lat="48.75621" lon="-0.19023">
        <ele>157</ele>
        <time>2020-05-23T15:14:33Z</time>
      </trkpt>
      <trkpt lat="48.75558" lon="-0.18971">
        <ele>153</ele>
        <time>2020-05-23T15:14:50Z</time>
      </trkpt>
      <trkpt lat="48.7554" lon="-0.18936">
        <ele>152</ele>
        <time>2020-05-23T15:14:57Z</time>
      </trkpt>
      <trkpt lat="48.75512" lon="-0.18902">
        <ele>149</ele>
        <time>2020-05-23T15:15:05Z</time>
      </trkpt>
      <trkpt lat="48.75506" lon="-0.18871">
        <ele>149</ele>
        <time>2020-05-23T15:15:10Z</time>
      </trkpt>
      <trkpt lat="48.75507" lon="-0.18849">
        <ele>149</ele>
        <time>2020-05-23T15:15:13Z</time>
      </trkpt>
      <trkpt lat="48.7556" lon="-0.18793">
        <ele>160</ele>
        <time>2020-05-23T15:15:28Z</time>
      </trkpt>
      <trkpt lat="48.75613" lon="-0.18766">
        <ele>169</ele>
        <time>2020-05-23T15:15:41Z</time>
      </trkpt>
      <trkpt lat="48.75656" lon="-0.18735">
        <ele>176</ele>
        <time>2020-05-23T15:15:53Z</time>
      </trkpt>
      <trkpt lat="48.75666" lon="-0.1871">
        <ele>179</ele>
        <time>2020-05-23T15:15:57Z</time>
      </trkpt>
      <trkpt lat="48.7567" lon="-0.1866">
        <ele>183</ele>
        <time>2020-05-23T15:16:05Z</time>
      </trkpt>
      <trkpt lat="48.75705" lon="-0.18495">
        <ele>196</ele>
        <time>2020-05-23T15:16:31Z</time>
      </trkpt>
      <trkpt lat="48.75699" lon="-0.18365">
        <ele>196</ele>
        <time>2020-05-23T15:16:52Z</time>
      </trkpt>
      <trkpt lat="48.75685" lon="-0.18281">
        <ele>195</ele>
        <time>2020-05-23T15:17:05Z</time>
      </trkpt>
      <trkpt lat="48.75692" lon="-0.18216">
        <ele>196</ele>
        <time>2020-05-23T15:17:15Z</time>
      </trkpt>
      <trkpt lat="48.75712" lon="-0.18166">
        <ele>198</ele>
        <time>2020-05-23T15:17:24Z</time>
      </trkpt>
      <trkpt lat="48.7565" lon="-0.17922">
        <ele>195</ele>
        <time>2020-05-23T15:18:04Z</time>
      </trkpt>
      <trkpt lat="48.75612" lon="-0.17828">
        <ele>196</ele>
        <time>2020-05-23T15:18:21Z</time>
      </trkpt>
      <trkpt lat="48.75587" lon="-0.17745">
        <ele>199</ele>
        <time>2020-05-23T15:18:35Z</time>
      </trkpt>
      <trkpt lat="48.75572" lon="-0.1767">
        <ele>202</ele>
        <time>2020-05-23T15:18:47Z</time>
      </trkpt>
      <trkpt lat="48.75451" lon="-0.17639">
        <ele>199</ele>
        <time>2020-05-23T15:19:16Z</time>
      </trkpt>
      <trkpt lat="48.75407" lon="-0.17653">
        <ele>198</ele>
        <time>2020-05-23T15:19:27Z</time>
      </trkpt>
      <trkpt lat="48.75328" lon="-0.17711">
        <ele>193</ele>
        <time>2020-05-23T15:19:47Z</time>
      </trkpt>
      <trkpt lat="48.75311" lon="-0.17718">
        <ele>192</ele>
        <time>2020-05-23T15:19:51Z</time>
      </trkpt>
      <trkpt lat="48.75258" lon="-0.178">
        <ele>189</ele>
        <time>2020-05-23T15:20:09Z</time>
      </trkpt>
      <trkpt lat="48.75138" lon="-0.179">
        <ele>184</ele>
        <time>2020-05-23T15:20:41Z</time>
      </trkpt>
      <trkpt lat="48.7509" lon="-0.17941">
        <ele>178</ele>
        <time>2020-05-23T15:20:54Z</time>
      </trkpt>
      <trkpt lat="48.75051" lon="-0.17985">
        <ele>175</ele>
        <time>2020-05-23T15:21:05Z</time>
      </trkpt>
      <trkpt lat="48.75011" lon="-0.18032">
        <ele>170</ele>
        <time>2020-05-23T15:21:17Z</time>
      </trkpt>
      <trkpt lat="48.74957" lon="-0.18043">
        <ele>171</ele>
        <time>2020-05-23T15:21:30Z</time>
      </trkpt>
      <trkpt lat="48.74831" lon="-0.18123">
        <ele>170</ele>
        <time>2020-05-23T15:22:01Z</time>
      </trkpt>
      <trkpt lat="48.74795" lon="-0.1814">
        <ele>169</ele>
        <time>2020-05-23T15:22:10Z</time>
      </trkpt>
      <trkpt lat="48.74771" lon="-0.1814">
        <ele>170</ele>
        <time>2020-05-23T15:22:16Z</time>
      </trkpt>
      <trkpt lat="48.74739" lon="-0.18119">
        <ele>168</ele>
        <time>2020-05-23T15:22:24Z</time>
      </trkpt>
      <trkpt lat="48.74706" lon="-0.18069">
        <ele>161</ele>
        <time>2020-05-23T15:22:35Z</time>
      </trkpt>
      <trkpt lat="48.74672" lon="-0.18183">
        <ele>161</ele>
        <time>2020-05-23T15:22:54Z</time>
      </trkpt>
      <trkpt lat="48.74657" lon="-0.18286">
        <ele>160</ele>
        <time>2020-05-23T15:23:10Z</time>
      </trkpt>
      <trkpt lat="48.74648" lon="-0.18336">
        <ele>158</ele>
        <time>2020-05-23T15:23:18Z</time>
      </trkpt>
      <trkpt lat="48.74615" lon="-0.18441">
        <ele>150</ele>
        <time>2020-05-23T15:23:36Z</time>
      </trkpt>
      <trkpt lat="48.74608" lon="-0.18482">
        <ele>149</ele>
        <time>2020-05-23T15:23:43Z</time>
      </trkpt>
      <trkpt lat="48.74606" lon="-0.18532">
        <ele>150</ele>
        <time>2020-05-23T15:23:51Z</time>
      </trkpt>
      <trkpt lat="48.74621" lon="-0.18583">
        <ele>150</ele>
        <time>2020-05-23T15:23:59Z</time>
      </trkpt>
      <trkpt lat="48.74623" lon="-0.18645">
        <ele>151</ele>
        <time>2020-05-23T15:24:09Z</time>
      </trkpt>
      <trkpt lat="48.74604" lon="-0.18744">
        <ele>151</ele>
        <time>2020-05-23T15:24:25Z</time>
      </trkpt>
      <trkpt lat="48.74532" lon="-0.18915">
        <ele>147</ele>
        <time>2020-05-23T15:24:56Z</time>
      </trkpt>
      <trkpt lat="48.74452" lon="-0.19042">
        <ele>151</ele>
        <time>2020-05-23T15:25:23Z</time>
      </trkpt>
      <trkpt lat="48.74373" lon="-0.19122">
        <ele>152</ele>
        <time>2020-05-23T15:25:45Z</time>
      </trkpt>
      <trkpt lat="48.74297" lon="-0.19156">
        <ele>156</ele>
        <time>2020-05-23T15:26:04Z</time>
      </trkpt>
      <trkpt lat="48.74361" lon="-0.19062">
        <ele>160</ele>
        <time>2020-05-23T15:26:24Z</time>
      </trkpt>
      <trkpt lat="48.7438" lon="-0.19007">
        <ele>164</ele>
        <time>2020-05-23T15:26:34Z</time>
      </trkpt>
      <trkpt lat="48.7439" lon="-0.18969">
        <ele>166</ele>
        <time>2020-05-23T15:26:40Z</time>
      </trkpt>
      <trkpt lat="48.74423" lon="-0.18948">
        <ele>164</ele>
        <time>2020-05-23T15:26:49Z</time>
      </trkpt>
      <trkpt lat="48.74479" lon="-0.18867">
        <ele>162</ele>
        <time>2020-05-23T15:27:07Z</time>
      </trkpt>
      <trkpt lat="48.74494" lon="-0.18837">
        <ele>165</ele>
        <time>2020-05-23T15:27:12Z</time>
      </trkpt>
      <trkpt lat="48.74499" lon="-0.18815">
        <ele>165</ele>
        <time>2020-05-23T15:27:16Z</time>
      </trkpt>
      <trkpt lat="48.74496" lon="-0.18788">
        <ele>164</ele>
        <time>2020-05-23T15:27:20Z</time>
      </trkpt>
      <trkpt lat="48.74481" lon="-0.18779">
        <ele>164</ele>
        <time>2020-05-23T15:27:24Z</time>
      </trkpt>
      <trkpt lat="48.74467" lon="-0.18796">
        <ele>164</ele>
        <time>2020-05-23T15:27:28Z</time>
      </trkpt>
      <trkpt lat="48.74458" lon="-0.18819">
        <ele>166</ele>
        <time>2020-05-23T15:27:32Z</time>
      </trkpt>
      <trkpt lat="48.74472" lon="-0.18858">
        <ele>164</ele>
        <time>2020-05-23T15:27:39Z</time>
      </trkpt>
      <trkpt lat="48.74452" lon="-0.18903">
        <ele>162</ele>
        <time>2020-05-23T15:27:48Z</time>
      </trkpt>
      <trkpt lat="48.74408" lon="-0.18953">
        <ele>166</ele>
        <time>2020-05-23T15:28:00Z</time>
      </trkpt>
      <trkpt lat="48.74377" lon="-0.18988">
        <ele>166</ele>
        <time>2020-05-23T15:28:09Z</time>
      </trkpt>
      <trkpt lat="48.74351" lon="-0.19069">
        <ele>160</ele>
        <time>2020-05-23T15:28:23Z</time>
      </trkpt>
      <trkpt lat="48.7429" lon="-0.19161">
        <ele>157</ele>
        <time>2020-05-23T15:28:43Z</time>
      </trkpt>
      <trkpt lat="48.7437" lon="-0.19135">
        <ele>151</ele>
        <time>2020-05-23T15:29:02Z</time>
      </trkpt>
      <trkpt lat="48.74449" lon="-0.19055">
        <ele>150</ele>
        <time>2020-05-23T15:29:25Z</time>
      </trkpt>
      <trkpt lat="48.7453" lon="-0.18932">
        <ele>147</ele>
        <time>2020-05-23T15:29:51Z</time>
      </trkpt>
      <trkpt lat="48.74606" lon="-0.18762">
        <ele>150</ele>
        <time>2020-05-23T15:30:23Z</time>
      </trkpt>
      <trkpt lat="48.74625" lon="-0.18667">
        <ele>151</ele>
        <time>2020-05-23T15:30:38Z</time>
      </trkpt>
      <trkpt lat="48.74638" lon="-0.18636">
        <ele>148</ele>
        <time>2020-05-23T15:30:44Z</time>
      </trkpt>
      <trkpt lat="48.74653" lon="-0.18588">
        <ele>146</ele>
        <time>2020-05-23T15:30:52Z</time>
      </trkpt>
      <trkpt lat="48.74685" lon="-0.18527">
        <ele>146</ele>
        <time>2020-05-23T15:31:04Z</time>
      </trkpt>
      <trkpt lat="48.74729" lon="-0.18471">
        <ele>145</ele>
        <time>2020-05-23T15:31:18Z</time>
      </trkpt>
      <trkpt lat="48.74764" lon="-0.18483">
        <ele>142</ele>
        <time>2020-05-23T15:31:26Z</time>
      </trkpt>
      <trkpt lat="48.74853" lon="-0.18532">
        <ele>145</ele>
        <time>2020-05-23T15:31:48Z</time>
      </trkpt>
      <trkpt lat="48.7488" lon="-0.18562">
        <ele>148</ele>
        <time>2020-05-23T15:31:56Z</time>
      </trkpt>
      <trkpt lat="48.74902" lon="-0.18618">
        <ele>152</ele>
        <time>2020-05-23T15:32:06Z</time>
      </trkpt>
      <trkpt lat="48.74914" lon="-0.18674">
        <ele>154</ele>
        <time>2020-05-23T15:32:15Z</time>
      </trkpt>
      <trkpt lat="48.74826" lon="-0.18819">
        <ele>158</ele>
        <time>2020-05-23T15:32:45Z</time>
      </trkpt>
      <trkpt lat="48.7476" lon="-0.19063">
        <ele>162</ele>
        <time>2020-05-23T15:33:26Z</time>
      </trkpt>
      <trkpt lat="48.74722" lon="-0.19257">
        <ele>168</ele>
        <time>2020-05-23T15:33:57Z</time>
      </trkpt>
      <trkpt lat="48.74644" lon="-0.19442">
        <ele>170</ele>
        <time>2020-05-23T15:34:31Z</time>
      </trkpt>
      <trkpt lat="48.74467" lon="-0.19667">
        <ele>180</ele>
        <time>2020-05-23T15:35:25Z</time>
      </trkpt>
      <trkpt lat="48.74447" lon="-0.19691">
        <ele>180</ele>
        <time>2020-05-23T15:35:31Z</time>
      </trkpt>
      <trkpt lat="48.74269" lon="-0.19743">
        <ele>177</ele>
        <time>2020-05-23T15:36:13Z</time>
      </trkpt>
      <trkpt lat="48.74123" lon="-0.19757">
        <ele>178</ele>
        <time>2020-05-23T15:36:47Z</time>
      </trkpt>
      <trkpt lat="48.74072" lon="-0.19747">
        <ele>180</ele>
        <time>2020-05-23T15:36:59Z</time>
      </trkpt>
      <trkpt lat="48.74019" lon="-0.19715">
        <ele>179</ele>
        <time>2020-05-23T15:37:13Z</time>
      </trkpt>
      <trkpt lat="48.73914" lon="-0.19693">
        <ele>181</ele>
        <time>2020-05-23T15:37:37Z</time>
      </trkpt>
      <trkpt lat="48.73866" lon="-0.19718">
        <ele>189</ele>
        <time>2020-05-23T15:37:49Z</time>
      </trkpt>
      <trkpt lat="48.73757" lon="-0.1963">
        <ele>186</ele>
        <time>2020-05-23T15:38:18Z</time>
      </trkpt>
      <trkpt lat="48.73734" lon="-0.19631">
        <ele>188</ele>
        <time>2020-05-23T15:38:23Z</time>
      </trkpt>
      <trkpt lat="48.73717" lon="-0.19658">
        <ele>193</ele>
        <time>2020-05-23T15:38:29Z</time>
      </trkpt>
      <trkpt lat="48.73702" lon="-0.19725">
        <ele>199</ele>
        <time>2020-05-23T15:38:40Z</time>
      </trkpt>
      <trkpt lat="48.73695" lon="-0.19752">
        <ele>201</ele>
        <time>2020-05-23T15:38:45Z</time>
      </trkpt>
      <trkpt lat="48.7368" lon="-0.19766">
        <ele>202</ele>
        <time>2020-05-23T15:38:49Z</time>
      </trkpt>
      <trkpt lat="48.7369" lon="-0.1991">
        <ele>208</ele>
        <time>2020-05-23T15:39:11Z</time>
      </trkpt>
      <trkpt lat="48.73529" lon="-0.20037">
        <ele>217</ele>
        <time>2020-05-23T15:39:53Z</time>
      </trkpt>
      <trkpt lat="48.73477" lon="-0.20059">
        <ele>220</ele>
        <time>2020-05-23T15:40:06Z</time>
      </trkpt>
      <trkpt lat="48.73439" lon="-0.20129">
        <ele>223</ele>
        <time>2020-05-23T15:40:20Z</time>
      </trkpt>
      <trkpt lat="48.73411" lon="-0.2018">
        <ele>223</ele>
        <time>2020-05-23T15:40:30Z</time>
      </trkpt>
      <trkpt lat="48.73521" lon="-0.2024">
        <ele>212</ele>
        <time>2020-05-23T15:40:57Z</time>
      </trkpt>
      <trkpt lat="48.73583" lon="-0.20293">
        <ele>209</ele>
        <time>2020-05-23T15:41:14Z</time>
      </trkpt>
      <trkpt lat="48.73503" lon="-0.20395">
        <ele>210</ele>
        <time>2020-05-23T15:41:38Z</time>
      </trkpt>
      <trkpt lat="48.73485" lon="-0.20406">
        <ele>209</ele>
        <time>2020-05-23T15:41:43Z</time>
      </trkpt>
      <trkpt lat="48.73443" lon="-0.20452">
        <ele>210</ele>
        <time>2020-05-23T15:41:55Z</time>
      </trkpt>
      <trkpt lat="48.73428" lon="-0.20488">
        <ele>210</ele>
        <time>2020-05-23T15:42:02Z</time>
      </trkpt>
      <trkpt lat="48.73353" lon="-0.20919">
        <ele>211</ele>
        <time>2020-05-23T15:43:10Z</time>
      </trkpt>
      <trkpt lat="48.73346" lon="-0.20956">
        <ele>212</ele>
        <time>2020-05-23T15:43:16Z</time>
      </trkpt>
      <trkpt lat="48.73319" lon="-0.21054">
        <ele>211</ele>
        <time>2020-05-23T15:43:33Z</time>
      </trkpt>
      <trkpt lat="48.73305" lon="-0.21186">
        <ele>208</ele>
        <time>2020-05-23T15:43:53Z</time>
      </trkpt>
      <trkpt lat="48.733" lon="-0.21265">
        <ele>207</ele>
        <time>2020-05-23T15:44:05Z</time>
      </trkpt>
      <trkpt lat="48.73309" lon="-0.21331">
        <ele>205</ele>
        <time>2020-05-23T15:44:16Z</time>
      </trkpt>
      <trkpt lat="48.73314" lon="-0.21365">
        <ele>205</ele>
        <time>2020-05-23T15:44:21Z</time>
      </trkpt>
      <trkpt lat="48.73302" lon="-0.21466">
        <ele>202</ele>
        <time>2020-05-23T15:44:37Z</time>
      </trkpt>
      <trkpt lat="48.73311" lon="-0.2158">
        <ele>198</ele>
        <time>2020-05-23T15:44:55Z</time>
      </trkpt>
      <trkpt lat="48.73326" lon="-0.21685">
        <ele>195</ele>
        <time>2020-05-23T15:45:11Z</time>
      </trkpt>
      <trkpt lat="48.73462" lon="-0.21618">
        <ele>192</ele>
        <time>2020-05-23T15:45:45Z</time>
      </trkpt>
      <trkpt lat="48.73622" lon="-0.21493">
        <ele>191</ele>
        <time>2020-05-23T15:46:27Z</time>
      </trkpt>
      <trkpt lat="48.7367" lon="-0.21484">
        <ele>188</ele>
        <time>2020-05-23T15:46:38Z</time>
      </trkpt>
      <trkpt lat="48.73704" lon="-0.21456">
        <ele>188</ele>
        <time>2020-05-23T15:46:47Z</time>
      </trkpt>
      <trkpt lat="48.73895" lon="-0.2127">
        <ele>169</ele>
        <time>2020-05-23T15:47:40Z</time>
      </trkpt>
      <trkpt lat="48.73844" lon="-0.21455">
        <ele>176</ele>
        <time>2020-05-23T15:48:11Z</time>
      </trkpt>
      <trkpt lat="48.73812" lon="-0.21504">
        <ele>182</ele>
        <time>2020-05-23T15:48:22Z</time>
      </trkpt>
      <trkpt lat="48.73719" lon="-0.21623">
        <ele>187</ele>
        <time>2020-05-23T15:48:50Z</time>
      </trkpt>
      <trkpt lat="48.73704" lon="-0.21653">
        <ele>189</ele>
        <time>2020-05-23T15:48:56Z</time>
      </trkpt>
      <trkpt lat="48.73708" lon="-0.21724">
        <ele>193</ele>
        <time>2020-05-23T15:49:07Z</time>
      </trkpt>
      <trkpt lat="48.73739" lon="-0.21893">
        <ele>198</ele>
        <time>2020-05-23T15:49:34Z</time>
      </trkpt>
      <trkpt lat="48.73774" lon="-0.22064">
        <ele>199</ele>
        <time>2020-05-23T15:50:01Z</time>
      </trkpt>
      <trkpt lat="48.73845" lon="-0.22201">
        <ele>199</ele>
        <time>2020-05-23T15:50:28Z</time>
      </trkpt>
      <trkpt lat="48.73852" lon="-0.22227">
        <ele>200</ele>
        <time>2020-05-23T15:50:32Z</time>
      </trkpt>
      <trkpt lat="48.73836" lon="-0.22269">
        <ele>200</ele>
        <time>2020-05-23T15:50:40Z</time>
      </trkpt>
      <trkpt lat="48.73813" lon="-0.22311">
        <ele>200</ele>
        <time>2020-05-23T15:50:48Z</time>
      </trkpt>
      <trkpt lat="48.73789" lon="-0.22332">
        <ele>201</ele>
        <time>2020-05-23T15:50:55Z</time>
      </trkpt>
      <trkpt lat="48.73579" lon="-0.22576">
        <ele>210</ele>
        <time>2020-05-23T15:51:57Z</time>
      </trkpt>
      <trkpt lat="48.7345" lon="-0.22714">
        <ele>213</ele>
        <time>2020-05-23T15:52:33Z</time>
      </trkpt>
      <trkpt lat="48.73452" lon="-0.22869">
        <ele>214</ele>
        <time>2020-05-23T15:52:57Z</time>
      </trkpt>
      <trkpt lat="48.73496" lon="-0.2289">
        <ele>215</ele>
        <time>2020-05-23T15:53:08Z</time>
      </trkpt>
      <trkpt lat="48.73747" lon="-0.23206">
        <ele>214</ele>
        <time>2020-05-23T15:54:24Z</time>
      </trkpt>
      <trkpt lat="48.73767" lon="-0.23324">
        <ele>217</ele>
        <time>2020-05-23T15:54:43Z</time>
      </trkpt>
      <trkpt lat="48.73805" lon="-0.23411">
        <ele>215</ele>
        <time>2020-05-23T15:54:59Z</time>
      </trkpt>
      <trkpt lat="48.73856" lon="-0.23543">
        <ele>213</ele>
        <time>2020-05-23T15:55:23Z</time>
      </trkpt>
      <trkpt lat="48.73925" lon="-0.23711">
        <ele>214</ele>
        <time>2020-05-23T15:55:53Z</time>
      </trkpt>
      <trkpt lat="48.73941" lon="-0.23764">
        <ele>214</ele>
        <time>2020-05-23T15:56:02Z</time>
      </trkpt>
      <trkpt lat="48.73936" lon="-0.23829">
        <ele>213</ele>
        <time>2020-05-23T15:56:12Z</time>
      </trkpt>
      <trkpt lat="48.73919" lon="-0.23915">
        <ele>212</ele>
        <time>2020-05-23T15:56:26Z</time>
      </trkpt>
      <trkpt lat="48.73917" lon="-0.23974">
        <ele>210</ele>
        <time>2020-05-23T15:56:35Z</time>
      </trkpt>
      <trkpt lat="48.73926" lon="-0.24024">
        <ele>208</ele>
        <time>2020-05-23T15:56:43Z</time>
      </trkpt>
      <trkpt lat="48.73954" lon="-0.2405">
        <ele>206</ele>
        <time>2020-05-23T15:56:51Z</time>
      </trkpt>
      <trkpt lat="48.7404" lon="-0.24082">
        <ele>202</ele>
        <time>2020-05-23T15:57:11Z</time>
      </trkpt>
      <trkpt lat="48.741" lon="-0.24087">
        <ele>198</ele>
        <time>2020-05-23T15:57:26Z</time>
      </trkpt>
      <trkpt lat="48.74095" lon="-0.24124">
        <ele>192</ele>
        <time>2020-05-23T15:57:31Z</time>
      </trkpt>
      <trkpt lat="48.74055" lon="-0.24163">
        <ele>191</ele>
        <time>2020-05-23T15:57:42Z</time>
      </trkpt>
      <trkpt lat="48.74007" lon="-0.24178">
        <ele>194</ele>
        <time>2020-05-23T15:57:54Z</time>
      </trkpt>
      <trkpt lat="48.73828" lon="-0.24159">
        <ele>199</ele>
        <time>2020-05-23T15:58:36Z</time>
      </trkpt>
      <trkpt lat="48.73719" lon="-0.24135">
        <ele>202</ele>
        <time>2020-05-23T15:59:02Z</time>
      </trkpt>
      <trkpt lat="48.73686" lon="-0.24144">
        <ele>201</ele>
        <time>2020-05-23T15:59:09Z</time>
      </trkpt>
      <trkpt lat="48.73672" lon="-0.24157">
        <ele>199</ele>
        <time>2020-05-23T15:59:13Z</time>
      </trkpt>
      <trkpt lat="48.7363" lon="-0.24151">
        <ele>200</ele>
        <time>2020-05-23T15:59:23Z</time>
      </trkpt>
      <trkpt lat="48.73455" lon="-0.24066">
        <ele>201</ele>
        <time>2020-05-23T16:00:06Z</time>
      </trkpt>
      <trkpt lat="48.73447" lon="-0.24112">
        <ele>198</ele>
        <time>2020-05-23T16:00:13Z</time>
      </trkpt>
      <trkpt lat="48.73451" lon="-0.24144">
        <ele>195</ele>
        <time>2020-05-23T16:00:18Z</time>
      </trkpt>
      <trkpt lat="48.7347" lon="-0.24176">
        <ele>194</ele>
        <time>2020-05-23T16:00:25Z</time>
      </trkpt>
      <trkpt lat="48.73263" lon="-0.24212">
        <ele>186</ele>
        <time>2020-05-23T16:01:14Z</time>
      </trkpt>
      <trkpt lat="48.73202" lon="-0.24259">
        <ele>184</ele>
        <time>2020-05-23T16:01:30Z</time>
      </trkpt>
      <trkpt lat="48.73131" lon="-0.24377">
        <ele>185</ele>
        <time>2020-05-23T16:01:54Z</time>
      </trkpt>
      <trkpt lat="48.73111" lon="-0.24485">
        <ele>185</ele>
        <time>2020-05-23T16:02:11Z</time>
      </trkpt>
      <trkpt lat="48.73102" lon="-0.24606">
        <ele>187</ele>
        <time>2020-05-23T16:02:30Z</time>
      </trkpt>
      <trkpt lat="48.73089" lon="-0.24683">
        <ele>190</ele>
        <time>2020-05-23T16:02:42Z</time>
      </trkpt>
      <trkpt lat="48.73085" lon="-0.24765">
        <ele>193</ele>
        <time>2020-05-23T16:02:55Z</time>
      </trkpt>
      <trkpt lat="48.73097" lon="-0.24873">
        <ele>198</ele>
        <time>2020-05-23T16:03:12Z</time>
      </trkpt>
      <trkpt lat="48.73081" lon="-0.25156">
        <ele>206</ele>
        <time>2020-05-23T16:03:56Z</time>
      </trkpt>
      <trkpt lat="48.7307" lon="-0.25187">
        <ele>206</ele>
        <time>2020-05-23T16:04:01Z</time>
      </trkpt>
      <trkpt lat="48.7302" lon="-0.25223">
        <ele>205</ele>
        <time>2020-05-23T16:04:14Z</time>
      </trkpt>
      <trkpt lat="48.72955" lon="-0.25284">
        <ele>205</ele>
        <time>2020-05-23T16:04:32Z</time>
      </trkpt>
      <trkpt lat="48.73109" lon="-0.25657">
        <ele>213</ele>
        <time>2020-05-23T16:05:40Z</time>
      </trkpt>
      <trkpt lat="48.73276" lon="-0.25544">
        <ele>201</ele>
        <time>2020-05-23T16:06:22Z</time>
      </trkpt>
      <trkpt lat="48.73302" lon="-0.25532">
        <ele>199</ele>
        <time>2020-05-23T16:06:29Z</time>
      </trkpt>
      <trkpt lat="48.73344" lon="-0.25545">
        <ele>197</ele>
        <time>2020-05-23T16:06:39Z</time>
      </trkpt>
      <trkpt lat="48.73406" lon="-0.25587">
        <ele>193</ele>
        <time>2020-05-23T16:06:55Z</time>
      </trkpt>
      <trkpt lat="48.73497" lon="-0.2558">
        <ele>188</ele>
        <time>2020-05-23T16:07:16Z</time>
      </trkpt>
      <trkpt lat="48.73585" lon="-0.25498">
        <ele>185</ele>
        <time>2020-05-23T16:07:40Z</time>
      </trkpt>
      <trkpt lat="48.73638" lon="-0.25496">
        <ele>186</ele>
        <time>2020-05-23T16:07:52Z</time>
      </trkpt>
      <trkpt lat="48.73696" lon="-0.25545">
        <ele>193</ele>
        <time>2020-05-23T16:08:08Z</time>
      </trkpt>
      <trkpt lat="48.7373" lon="-0.25531">
        <ele>196</ele>
        <time>2020-05-23T16:08:16Z</time>
      </trkpt>
      <trkpt lat="48.73878" lon="-0.25503">
        <ele>208</ele>
        <time>2020-05-23T16:08:51Z</time>
      </trkpt>
      <trkpt lat="48.74062" lon="-0.25463">
        <ele>221</ele>
        <time>2020-05-23T16:09:34Z</time>
      </trkpt>
      <trkpt lat="48.74128" lon="-0.25441">
        <ele>221</ele>
        <time>2020-05-23T16:09:50Z</time>
      </trkpt>
      <trkpt lat="48.74159" lon="-0.25445">
        <ele>220</ele>
        <time>2020-05-23T16:09:57Z</time>
      </trkpt>
      <trkpt lat="48.74269" lon="-0.25411">
        <ele>217</ele>
        <time>2020-05-23T16:10:24Z</time>
      </trkpt>
      <trkpt lat="48.74325" lon="-0.25385">
        <ele>212</ele>
        <time>2020-05-23T16:10:37Z</time>
      </trkpt>
      <trkpt lat="48.74374" lon="-0.25327">
        <ele>208</ele>
        <time>2020-05-23T16:10:52Z</time>
      </trkpt>
      <trkpt lat="48.74415" lon="-0.25295">
        <ele>204</ele>
        <time>2020-05-23T16:11:03Z</time>
      </trkpt>
      <trkpt lat="48.74486" lon="-0.25289">
        <ele>202</ele>
        <time>2020-05-23T16:11:19Z</time>
      </trkpt>
      <trkpt lat="48.74504" lon="-0.25271">
        <ele>200</ele>
        <time>2020-05-23T16:11:24Z</time>
      </trkpt>
      <trkpt lat="48.74548" lon="-0.25203">
        <ele>201</ele>
        <time>2020-05-23T16:11:39Z</time>
      </trkpt>
      <trkpt lat="48.74578" lon="-0.25169">
        <ele>203</ele>
        <time>2020-05-23T16:11:48Z</time>
      </trkpt>
      <trkpt lat="48.74603" lon="-0.25162">
        <ele>204</ele>
        <time>2020-05-23T16:11:54Z</time>
      </trkpt>
      <trkpt lat="48.74627" lon="-0.25167">
        <ele>205</ele>
        <time>2020-05-23T16:11:59Z</time>
      </trkpt>
      <trkpt lat="48.74691" lon="-0.25202">
        <ele>208</ele>
        <time>2020-05-23T16:12:15Z</time>
      </trkpt>
      <trkpt lat="48.74724" lon="-0.25235">
        <ele>210</ele>
        <time>2020-05-23T16:12:24Z</time>
      </trkpt>
      <trkpt lat="48.74838" lon="-0.25197">
        <ele>212</ele>
        <time>2020-05-23T16:12:52Z</time>
      </trkpt>
      <trkpt lat="48.74966" lon="-0.25157">
        <ele>207</ele>
        <time>2020-05-23T16:13:22Z</time>
      </trkpt>
      <trkpt lat="48.75052" lon="-0.25119">
        <ele>203</ele>
        <time>2020-05-23T16:13:43Z</time>
      </trkpt>
      <trkpt lat="48.75068" lon="-0.25116">
        <ele>204</ele>
        <time>2020-05-23T16:13:47Z</time>
      </trkpt>
      <trkpt lat="48.75095" lon="-0.25144">
        <ele>204</ele>
        <time>2020-05-23T16:13:54Z</time>
      </trkpt>
      <trkpt lat="48.75152" lon="-0.2518">
        <ele>203</ele>
        <time>2020-05-23T16:14:09Z</time>
      </trkpt>
      <trkpt lat="48.75191" lon="-0.25146">
        <ele>202</ele>
        <time>2020-05-23T16:14:19Z</time>
      </trkpt>
      <trkpt lat="48.7532" lon="-0.25066">
        <ele>199</ele>
        <time>2020-05-23T16:14:52Z</time>
      </trkpt>
      <trkpt lat="48.75361" lon="-0.25032">
        <ele>199</ele>
        <time>2020-05-23T16:15:03Z</time>
      </trkpt>
      <trkpt lat="48.75412" lon="-0.24968">
        <ele>197</ele>
        <time>2020-05-23T16:15:18Z</time>
      </trkpt>
      <trkpt lat="48.75461" lon="-0.24892">
        <ele>193</ele>
        <time>2020-05-23T16:15:35Z</time>
      </trkpt>
      <trkpt lat="48.75511" lon="-0.2482">
        <ele>188</ele>
        <time>2020-05-23T16:15:51Z</time>
      </trkpt>
      <trkpt lat="48.75547" lon="-0.24788">
        <ele>184</ele>
        <time>2020-05-23T16:16:01Z</time>
      </trkpt>
      <trkpt lat="48.75589" lon="-0.24756">
        <ele>179</ele>
        <time>2020-05-23T16:16:12Z</time>
      </trkpt>
      <trkpt lat="48.75621" lon="-0.24751">
        <ele>174</ele>
        <time>2020-05-23T16:16:19Z</time>
      </trkpt>
      <trkpt lat="48.75667" lon="-0.24769">
        <ele>170</ele>
        <time>2020-05-23T16:16:30Z</time>
      </trkpt>
      <trkpt lat="48.7571" lon="-0.24776">
        <ele>163</ele>
        <time>2020-05-23T16:16:40Z</time>
      </trkpt>
      <trkpt lat="48.75773" lon="-0.24748">
        <ele>150</ele>
        <time>2020-05-23T16:16:56Z</time>
      </trkpt>
      <trkpt lat="48.75831" lon="-0.24774">
        <ele>145</ele>
        <time>2020-05-23T16:17:10Z</time>
      </trkpt>
      <trkpt lat="48.75856" lon="-0.24772">
        <ele>143</ele>
        <time>2020-05-23T16:17:16Z</time>
      </trkpt>
      <trkpt lat="48.75873" lon="-0.24785">
        <ele>143</ele>
        <time>2020-05-23T16:17:20Z</time>
      </trkpt>
      <trkpt lat="48.75888" lon="-0.2478">
        <ele>142</ele>
        <time>2020-05-23T16:17:24Z</time>
      </trkpt>
      <trkpt lat="48.76072" lon="-0.24795">
        <ele>139</ele>
        <time>2020-05-23T16:18:07Z</time>
      </trkpt>
      <trkpt lat="48.76126" lon="-0.2475">
        <ele>137</ele>
        <time>2020-05-23T16:18:21Z</time>
      </trkpt>
      <trkpt lat="48.76216" lon="-0.24634">
        <ele>134</ele>
        <time>2020-05-23T16:18:49Z</time>
      </trkpt>
      <trkpt lat="48.76224" lon="-0.24649">
        <ele>135</ele>
        <time>2020-05-23T16:18:52Z</time>
      </trkpt>
      <trkpt lat="48.76235" lon="-0.24721">
        <ele>138</ele>
        <time>2020-05-23T16:19:03Z</time>
      </trkpt>
      <trkpt lat="48.76233" lon="-0.24769">
        <ele>139</ele>
        <time>2020-05-23T16:19:10Z</time>
      </trkpt>
      <trkpt lat="48.76202" lon="-0.24866">
        <ele>140</ele>
        <time>2020-05-23T16:19:27Z</time>
      </trkpt>
      <trkpt lat="48.76321" lon="-0.24757">
        <ele>138</ele>
        <time>2020-05-23T16:19:59Z</time>
      </trkpt>
      <trkpt lat="48.76449" lon="-0.24681">
        <ele>131</ele>
        <time>2020-05-23T16:20:31Z</time>
      </trkpt>
      <trkpt lat="48.76389" lon="-0.2449">
        <ele>129</ele>
        <time>2020-05-23T16:21:04Z</time>
      </trkpt>
    </trkseg>
  </trk>
</gpx>